sensor_id;sensor_type;location;lat;lon;timestamp;P1;durP1;ratioP1;P2;durP2;ratioP2
7833;SDS011;3962;42.696;23.354;2022-09-01T00:01:24;17.53;;;12.33;;
7833;SDS011;3962;42.696;23.354;2022-09-01T00:03:52;15.67;;;11.40;;
7833;SDS011;3962;42.696;23.354;2022-09-01T00:06:20;15.70;;;11.03;;
7833;SDS011;3962;42.696;23.354;2022-09-01T00:08:49;16.13;;;10.93;;
7833;SDS011;3962;42.696;23.354;2022-09-01T00:11:16;15.00;;;10.90;;
7833;SDS011;3962;42.696;23.354;2022-09-01T00:13:43;12.73;;;9.50;;
7833;SDS011;3962;42.696;23.354;2022-09-01T00:16:10;13.67;;;10.03;;
7833;SDS011;3962;42.696;23.354;2022-09-01T00:18:39;18.37;;;10.80;;
7833;SDS011;3962;42.696;23.354;2022-09-01T00:21:07;15.07;;;9.87;;
7833;SDS011;3962;42.696;23.354;2022-09-01T00:23:36;17.50;;;10.00;;
7833;SDS011;3962;42.696;23.354;2022-09-01T00:26:03;15.93;;;10.03;;
7833;SDS011;3962;42.696;23.354;2022-09-01T00:28:31;16.53;;;10.07;;
7833;SDS011;3962;42.696;23.354;2022-09-01T00:30:58;16.20;;;10.20;;
7833;SDS011;3962;42.696;23.354;2022-09-01T00:33:25;12.67;;;9.50;;
7833;SDS011;3962;42.696;23.354;2022-09-01T00:35:52;18.27;;;10.30;;
7833;SDS011;3962;42.696;23.354;2022-09-01T00:38:19;14.53;;;9.80;;
7833;SDS011;3962;42.696;23.354;2022-09-01T00:40:48;13.87;;;10.33;;
7833;SDS011;3962;42.696;23.354;2022-09-01T00:43:16;14.47;;;10.13;;
7833;SDS011;3962;42.696;23.354;2022-09-01T00:45:46;14.10;;;10.27;;
7833;SDS011;3962;42.696;23.354;2022-09-01T00:48:15;14.20;;;9.43;;
7833;SDS011;3962;42.696;23.354;2022-09-01T00:50:45;14.67;;;9.30;;
7833;SDS011;3962;42.696;23.354;2022-09-01T00:53:12;16.20;;;10.57;;
7833;SDS011;3962;42.696;23.354;2022-09-01T00:55:39;13.10;;;9.50;;
7833;SDS011;3962;42.696;23.354;2022-09-01T00:58:08;19.93;;;10.67;;
7833;SDS011;3962;42.696;23.354;2022-09-01T01:00:36;15.37;;;9.90;;
7833;SDS011;3962;42.696;23.354;2022-09-01T01:03:05;16.43;;;11.13;;
7833;SDS011;3962;42.696;23.354;2022-09-01T01:05:35;16.77;;;11.33;;
7833;SDS011;3962;42.696;23.354;2022-09-01T01:08:05;15.30;;;10.23;;
7833;SDS011;3962;42.696;23.354;2022-09-01T01:10:33;17.13;;;11.30;;
7833;SDS011;3962;42.696;23.354;2022-09-01T01:13:11;16.23;;;10.77;;
7833;SDS011;3962;42.696;23.354;2022-09-01T01:15:39;15.27;;;10.50;;
7833;SDS011;3962;42.696;23.354;2022-09-01T01:18:08;17.03;;;11.47;;
7833;SDS011;3962;42.696;23.354;2022-09-01T01:20:35;15.87;;;11.00;;
7833;SDS011;3962;42.696;23.354;2022-09-01T01:23:23;15.30;;;10.73;;
7833;SDS011;3962;42.696;23.354;2022-09-01T01:25:57;14.90;;;10.87;;
7833;SDS011;3962;42.696;23.354;2022-09-01T01:28:26;17.47;;;11.27;;
7833;SDS011;3962;42.696;23.354;2022-09-01T01:30:56;16.33;;;11.27;;
7833;SDS011;3962;42.696;23.354;2022-09-01T01:33:28;17.93;;;10.80;;
7833;SDS011;3962;42.696;23.354;2022-09-01T01:35:56;18.40;;;11.27;;
7833;SDS011;3962;42.696;23.354;2022-09-01T01:38:24;19.13;;;11.93;;
7833;SDS011;3962;42.696;23.354;2022-09-01T01:40:51;16.23;;;11.43;;
7833;SDS011;3962;42.696;23.354;2022-09-01T01:43:20;18.80;;;11.40;;
7833;SDS011;3962;42.696;23.354;2022-09-01T01:45:48;18.53;;;11.77;;
7833;SDS011;3962;42.696;23.354;2022-09-01T01:48:17;16.03;;;11.10;;
7833;SDS011;3962;42.696;23.354;2022-09-01T01:50:47;19.10;;;11.83;;
7833;SDS011;3962;42.696;23.354;2022-09-01T01:53:14;19.30;;;11.93;;
7833;SDS011;3962;42.696;23.354;2022-09-01T01:55:43;18.00;;;10.83;;
7833;SDS011;3962;42.696;23.354;2022-09-01T01:58:12;16.80;;;12.20;;
7833;SDS011;3962;42.696;23.354;2022-09-01T02:00:40;20.10;;;11.77;;
7833;SDS011;3962;42.696;23.354;2022-09-01T02:03:09;20.67;;;12.57;;
7833;SDS011;3962;42.696;23.354;2022-09-01T02:05:37;18.60;;;11.33;;
7833;SDS011;3962;42.696;23.354;2022-09-01T02:08:06;18.10;;;11.90;;
7833;SDS011;3962;42.696;23.354;2022-09-01T02:10:35;20.40;;;12.63;;
7833;SDS011;3962;42.696;23.354;2022-09-01T02:13:04;20.10;;;11.87;;
7833;SDS011;3962;42.696;23.354;2022-09-01T02:15:33;16.87;;;12.27;;
7833;SDS011;3962;42.696;23.354;2022-09-01T02:18:09;20.37;;;13.70;;
7833;SDS011;3962;42.696;23.354;2022-09-01T02:20:38;16.47;;;11.53;;
7833;SDS011;3962;42.696;23.354;2022-09-01T02:23:05;19.17;;;13.03;;
7833;SDS011;3962;42.696;23.354;2022-09-01T02:25:36;19.57;;;12.60;;
7833;SDS011;3962;42.696;23.354;2022-09-01T02:28:08;18.73;;;12.17;;
7833;SDS011;3962;42.696;23.354;2022-09-01T02:30:39;18.53;;;12.37;;
7833;SDS011;3962;42.696;23.354;2022-09-01T02:33:06;18.23;;;12.00;;
7833;SDS011;3962;42.696;23.354;2022-09-01T02:35:35;20.60;;;11.83;;
7833;SDS011;3962;42.696;23.354;2022-09-01T02:38:02;18.30;;;11.67;;
7833;SDS011;3962;42.696;23.354;2022-09-01T02:40:29;16.50;;;12.07;;
7833;SDS011;3962;42.696;23.354;2022-09-01T02:42:57;17.60;;;12.23;;
7833;SDS011;3962;42.696;23.354;2022-09-01T02:45:25;18.77;;;12.93;;
7833;SDS011;3962;42.696;23.354;2022-09-01T02:47:54;16.97;;;11.80;;
7833;SDS011;3962;42.696;23.354;2022-09-01T02:50:22;18.70;;;11.60;;
7833;SDS011;3962;42.696;23.354;2022-09-01T02:52:51;18.40;;;12.23;;
7833;SDS011;3962;42.696;23.354;2022-09-01T02:55:19;16.03;;;11.97;;
7833;SDS011;3962;42.696;23.354;2022-09-01T02:57:48;17.20;;;11.73;;
7833;SDS011;3962;42.696;23.354;2022-09-01T03:00:16;18.27;;;12.83;;
7833;SDS011;3962;42.696;23.354;2022-09-01T03:02:53;18.63;;;12.30;;
7833;SDS011;3962;42.696;23.354;2022-09-01T03:05:24;19.33;;;12.60;;
7833;SDS011;3962;42.696;23.354;2022-09-01T03:07:54;19.50;;;12.10;;
7833;SDS011;3962;42.696;23.354;2022-09-01T03:10:24;21.67;;;12.43;;
7833;SDS011;3962;42.696;23.354;2022-09-01T03:12:56;18.53;;;12.17;;
7833;SDS011;3962;42.696;23.354;2022-09-01T03:15:23;21.20;;;12.90;;
7833;SDS011;3962;42.696;23.354;2022-09-01T03:17:51;18.13;;;12.47;;
7833;SDS011;3962;42.696;23.354;2022-09-01T03:20:18;23.13;;;12.83;;
7833;SDS011;3962;42.696;23.354;2022-09-01T03:22:47;21.47;;;12.87;;
7833;SDS011;3962;42.696;23.354;2022-09-01T03:25:16;25.73;;;13.63;;
7833;SDS011;3962;42.696;23.354;2022-09-01T03:27:43;25.43;;;13.40;;
7833;SDS011;3962;42.696;23.354;2022-09-01T03:30:11;26.40;;;14.87;;
7833;SDS011;3962;42.696;23.354;2022-09-01T03:32:39;26.70;;;15.53;;
7833;SDS011;3962;42.696;23.354;2022-09-01T03:35:06;29.77;;;16.37;;
7833;SDS011;3962;42.696;23.354;2022-09-01T03:37:33;27.03;;;15.87;;
7833;SDS011;3962;42.696;23.354;2022-09-01T03:40:04;33.93;;;17.43;;
7833;SDS011;3962;42.696;23.354;2022-09-01T03:42:33;31.30;;;17.23;;
7833;SDS011;3962;42.696;23.354;2022-09-01T03:45:01;30.77;;;17.00;;
7833;SDS011;3962;42.696;23.354;2022-09-01T03:47:37;29.07;;;18.17;;
7833;SDS011;3962;42.696;23.354;2022-09-01T03:50:05;35.57;;;18.93;;
7833;SDS011;3962;42.696;23.354;2022-09-01T03:52:35;30.10;;;17.83;;
7833;SDS011;3962;42.696;23.354;2022-09-01T03:55:07;30.43;;;18.60;;
7833;SDS011;3962;42.696;23.354;2022-09-01T03:57:34;31.87;;;19.53;;
7833;SDS011;3962;42.696;23.354;2022-09-01T04:00:07;37.13;;;20.00;;
7833;SDS011;3962;42.696;23.354;2022-09-01T04:02:44;39.10;;;19.40;;
7833;SDS011;3962;42.696;23.354;2022-09-01T04:05:13;39.57;;;19.40;;
7833;SDS011;3962;42.696;23.354;2022-09-01T04:07:40;39.17;;;20.70;;
7833;SDS011;3962;42.696;23.354;2022-09-01T04:10:12;38.37;;;20.27;;
7833;SDS011;3962;42.696;23.354;2022-09-01T04:12:39;43.27;;;21.03;;
7833;SDS011;3962;42.696;23.354;2022-09-01T04:15:06;44.23;;;20.17;;
7833;SDS011;3962;42.696;23.354;2022-09-01T04:17:34;36.83;;;19.97;;
7833;SDS011;3962;42.696;23.354;2022-09-01T04:20:18;43.73;;;20.30;;
7833;SDS011;3962;42.696;23.354;2022-09-01T04:22:46;39.93;;;20.63;;
7833;SDS011;3962;42.696;23.354;2022-09-01T04:25:16;32.80;;;18.73;;
7833;SDS011;3962;42.696;23.354;2022-09-01T04:27:47;40.80;;;19.10;;
7833;SDS011;3962;42.696;23.354;2022-09-01T04:30:15;35.53;;;18.63;;
7833;SDS011;3962;42.696;23.354;2022-09-01T04:32:42;34.70;;;18.67;;
7833;SDS011;3962;42.696;23.354;2022-09-01T04:35:11;40.63;;;20.37;;
7833;SDS011;3962;42.696;23.354;2022-09-01T04:37:41;41.53;;;19.57;;
7833;SDS011;3962;42.696;23.354;2022-09-01T04:40:11;46.07;;;20.23;;
7833;SDS011;3962;42.696;23.354;2022-09-01T04:42:40;36.83;;;18.70;;
7833;SDS011;3962;42.696;23.354;2022-09-01T04:45:09;37.57;;;19.40;;
7833;SDS011;3962;42.696;23.354;2022-09-01T04:47:38;39.80;;;19.53;;
7833;SDS011;3962;42.696;23.354;2022-09-01T04:50:06;35.10;;;18.80;;
7833;SDS011;3962;42.696;23.354;2022-09-01T04:52:38;31.17;;;18.07;;
7833;SDS011;3962;42.696;23.354;2022-09-01T04:55:06;37.50;;;19.80;;
7833;SDS011;3962;42.696;23.354;2022-09-01T04:57:43;33.30;;;18.00;;
7833;SDS011;3962;42.696;23.354;2022-09-01T05:00:14;29.17;;;17.70;;
7833;SDS011;3962;42.696;23.354;2022-09-01T05:02:48;30.20;;;16.50;;
7833;SDS011;3962;42.696;23.354;2022-09-01T05:05:18;31.87;;;18.23;;
7833;SDS011;3962;42.696;23.354;2022-09-01T05:07:45;30.77;;;18.10;;
7833;SDS011;3962;42.696;23.354;2022-09-01T05:10:17;28.23;;;16.23;;
7833;SDS011;3962;42.696;23.354;2022-09-01T05:12:45;32.23;;;16.80;;
7833;SDS011;3962;42.696;23.354;2022-09-01T05:15:12;27.97;;;17.37;;
7833;SDS011;3962;42.696;23.354;2022-09-01T05:17:41;33.77;;;18.20;;
7833;SDS011;3962;42.696;23.354;2022-09-01T05:20:09;30.83;;;17.20;;
7833;SDS011;3962;42.696;23.354;2022-09-01T05:22:38;30.80;;;18.07;;
7833;SDS011;3962;42.696;23.354;2022-09-01T05:25:05;35.83;;;19.17;;
7833;SDS011;3962;42.696;23.354;2022-09-01T05:27:38;37.50;;;19.07;;
7833;SDS011;3962;42.696;23.354;2022-09-01T05:30:08;32.90;;;18.40;;
7833;SDS011;3962;42.696;23.354;2022-09-01T05:32:36;33.87;;;19.57;;
7833;SDS011;3962;42.696;23.354;2022-09-01T05:35:04;32.47;;;18.93;;
7833;SDS011;3962;42.696;23.354;2022-09-01T05:37:34;38.00;;;20.57;;
7833;SDS011;3962;42.696;23.354;2022-09-01T05:40:02;32.23;;;18.07;;
7833;SDS011;3962;42.696;23.354;2022-09-01T05:42:31;37.17;;;20.00;;
7833;SDS011;3962;42.696;23.354;2022-09-01T05:44:58;40.73;;;20.57;;
7833;SDS011;3962;42.696;23.354;2022-09-01T05:47:27;47.60;;;21.83;;
7833;SDS011;3962;42.696;23.354;2022-09-01T05:49:54;39.03;;;19.63;;
7833;SDS011;3962;42.696;23.354;2022-09-01T05:52:22;49.17;;;22.40;;
7833;SDS011;3962;42.696;23.354;2022-09-01T05:54:50;46.93;;;22.57;;
7833;SDS011;3962;42.696;23.354;2022-09-01T05:57:18;46.60;;;23.40;;
7833;SDS011;3962;42.696;23.354;2022-09-01T05:59:45;42.00;;;20.63;;
7833;SDS011;3962;42.696;23.354;2022-09-01T06:02:18;45.27;;;22.17;;
7833;SDS011;3962;42.696;23.354;2022-09-01T06:04:47;48.23;;;22.70;;
7833;SDS011;3962;42.696;23.354;2022-09-01T06:07:14;44.67;;;22.03;;
7833;SDS011;3962;42.696;23.354;2022-09-01T06:09:43;43.20;;;21.43;;
7833;SDS011;3962;42.696;23.354;2022-09-01T06:12:12;40.70;;;19.90;;
7833;SDS011;3962;42.696;23.354;2022-09-01T06:14:42;45.53;;;22.03;;
7833;SDS011;3962;42.696;23.354;2022-09-01T06:17:09;37.03;;;20.47;;
7833;SDS011;3962;42.696;23.354;2022-09-01T06:19:40;50.27;;;23.50;;
7833;SDS011;3962;42.696;23.354;2022-09-01T06:22:09;40.37;;;19.53;;
7833;SDS011;3962;42.696;23.354;2022-09-01T06:24:36;32.80;;;17.13;;
7833;SDS011;3962;42.696;23.354;2022-09-01T06:27:05;36.43;;;18.50;;
7833;SDS011;3962;42.696;23.354;2022-09-01T06:29:34;38.07;;;18.97;;
7833;SDS011;3962;42.696;23.354;2022-09-01T06:32:04;40.47;;;19.77;;
7833;SDS011;3962;42.696;23.354;2022-09-01T06:34:34;34.70;;;19.07;;
7833;SDS011;3962;42.696;23.354;2022-09-01T06:37:01;35.13;;;19.60;;
7833;SDS011;3962;42.696;23.354;2022-09-01T06:39:29;41.90;;;19.63;;
7833;SDS011;3962;42.696;23.354;2022-09-01T06:41:58;38.77;;;20.03;;
7833;SDS011;3962;42.696;23.354;2022-09-01T06:44:26;38.90;;;19.70;;
7833;SDS011;3962;42.696;23.354;2022-09-01T06:46:56;37.33;;;19.10;;
7833;SDS011;3962;42.696;23.354;2022-09-01T06:49:24;37.53;;;18.90;;
7833;SDS011;3962;42.696;23.354;2022-09-01T06:51:56;35.30;;;17.93;;
7833;SDS011;3962;42.696;23.354;2022-09-01T06:54:23;35.80;;;18.97;;
7833;SDS011;3962;42.696;23.354;2022-09-01T06:56:52;32.07;;;18.30;;
7833;SDS011;3962;42.696;23.354;2022-09-01T06:59:19;34.33;;;19.07;;
7833;SDS011;3962;42.696;23.354;2022-09-01T07:01:47;33.37;;;17.60;;
7833;SDS011;3962;42.696;23.354;2022-09-01T07:04:15;31.83;;;18.60;;
7833;SDS011;3962;42.696;23.354;2022-09-01T07:06:44;32.27;;;18.07;;
7833;SDS011;3962;42.696;23.354;2022-09-01T07:09:14;31.73;;;17.93;;
7833;SDS011;3962;42.696;23.354;2022-09-01T07:11:41;35.30;;;19.17;;
7833;SDS011;3962;42.696;23.354;2022-09-01T07:14:09;32.47;;;18.17;;
7833;SDS011;3962;42.696;23.354;2022-09-01T07:16:40;35.17;;;18.13;;
7833;SDS011;3962;42.696;23.354;2022-09-01T07:19:11;30.03;;;17.47;;
7833;SDS011;3962;42.696;23.354;2022-09-01T07:21:39;31.07;;;17.83;;
7833;SDS011;3962;42.696;23.354;2022-09-01T07:24:07;31.27;;;17.17;;
7833;SDS011;3962;42.696;23.354;2022-09-01T07:26:35;35.97;;;18.90;;
7833;SDS011;3962;42.696;23.354;2022-09-01T07:29:02;35.87;;;19.20;;
7833;SDS011;3962;42.696;23.354;2022-09-01T07:31:32;35.13;;;17.97;;
7833;SDS011;3962;42.696;23.354;2022-09-01T07:34:03;30.00;;;17.63;;
7833;SDS011;3962;42.696;23.354;2022-09-01T07:36:36;29.07;;;17.43;;
7833;SDS011;3962;42.696;23.354;2022-09-01T07:39:04;32.17;;;18.80;;
7833;SDS011;3962;42.696;23.354;2022-09-01T07:41:31;34.17;;;20.30;;
7833;SDS011;3962;42.696;23.354;2022-09-01T07:43:59;36.07;;;20.53;;
7833;SDS011;3962;42.696;23.354;2022-09-01T07:46:27;38.60;;;20.47;;
7833;SDS011;3962;42.696;23.354;2022-09-01T07:48:57;31.33;;;19.17;;
7833;SDS011;3962;42.696;23.354;2022-09-01T07:51:25;33.77;;;18.87;;
7833;SDS011;3962;42.696;23.354;2022-09-01T07:53:54;29.53;;;18.37;;
7833;SDS011;3962;42.696;23.354;2022-09-01T07:56:21;25.53;;;16.57;;
7833;SDS011;3962;42.696;23.354;2022-09-01T07:58:50;29.73;;;17.93;;
7833;SDS011;3962;42.696;23.354;2022-09-01T08:01:18;31.77;;;18.77;;
7833;SDS011;3962;42.696;23.354;2022-09-01T08:03:47;30.57;;;17.83;;
7833;SDS011;3962;42.696;23.354;2022-09-01T08:06:17;29.97;;;18.10;;
7833;SDS011;3962;42.696;23.354;2022-09-01T08:08:46;34.83;;;18.03;;
7833;SDS011;3962;42.696;23.354;2022-09-01T08:11:15;35.77;;;18.77;;
7833;SDS011;3962;42.696;23.354;2022-09-01T08:13:44;26.53;;;17.00;;
7833;SDS011;3962;42.696;23.354;2022-09-01T08:16:12;33.60;;;18.50;;
7833;SDS011;3962;42.696;23.354;2022-09-01T08:18:39;25.60;;;16.40;;
7833;SDS011;3962;42.696;23.354;2022-09-01T08:21:06;27.60;;;17.20;;
7833;SDS011;3962;42.696;23.354;2022-09-01T08:23:37;27.43;;;16.90;;
7833;SDS011;3962;42.696;23.354;2022-09-01T08:26:04;25.33;;;16.23;;
7833;SDS011;3962;42.696;23.354;2022-09-01T08:28:32;29.00;;;17.30;;
7833;SDS011;3962;42.696;23.354;2022-09-01T08:30:59;25.30;;;15.57;;
7833;SDS011;3962;42.696;23.354;2022-09-01T08:33:30;25.03;;;16.23;;
7833;SDS011;3962;42.696;23.354;2022-09-01T08:35:59;30.17;;;18.23;;
7833;SDS011;3962;42.696;23.354;2022-09-01T08:38:27;30.33;;;18.10;;
7833;SDS011;3962;42.696;23.354;2022-09-01T08:40:56;24.80;;;15.03;;
7833;SDS011;3962;42.696;23.354;2022-09-01T08:43:28;24.03;;;15.60;;
7833;SDS011;3962;42.696;23.354;2022-09-01T08:46:05;25.13;;;15.97;;
7833;SDS011;3962;42.696;23.354;2022-09-01T08:48:38;21.87;;;15.43;;
7833;SDS011;3962;42.696;23.354;2022-09-01T08:51:09;23.53;;;14.03;;
7833;SDS011;3962;42.696;23.354;2022-09-01T08:53:41;21.57;;;13.73;;
7833;SDS011;3962;42.696;23.354;2022-09-01T08:56:12;23.20;;;15.50;;
7833;SDS011;3962;42.696;23.354;2022-09-01T08:58:42;25.53;;;15.57;;
7833;SDS011;3962;42.696;23.354;2022-09-01T09:01:10;26.23;;;15.87;;
7833;SDS011;3962;42.696;23.354;2022-09-01T09:03:45;24.03;;;14.47;;
7833;SDS011;3962;42.696;23.354;2022-09-01T09:06:27;20.80;;;14.43;;
7833;SDS011;3962;42.696;23.354;2022-09-01T09:09:02;23.10;;;13.57;;
7833;SDS011;3962;42.696;23.354;2022-09-01T09:11:42;22.37;;;14.57;;
7833;SDS011;3962;42.696;23.354;2022-09-01T09:14:24;25.03;;;14.37;;
7833;SDS011;3962;42.696;23.354;2022-09-01T09:17:01;23.07;;;14.53;;
7833;SDS011;3962;42.696;23.354;2022-09-01T09:19:30;20.57;;;14.43;;
7833;SDS011;3962;42.696;23.354;2022-09-01T09:22:00;21.97;;;13.00;;
7833;SDS011;3962;42.696;23.354;2022-09-01T09:24:30;19.63;;;13.17;;
7833;SDS011;3962;42.696;23.354;2022-09-01T09:27:16;16.77;;;10.47;;
7833;SDS011;3962;42.696;23.354;2022-09-01T09:29:45;20.13;;;10.43;;
7833;SDS011;3962;42.696;23.354;2022-09-01T09:32:15;17.13;;;10.70;;
7833;SDS011;3962;42.696;23.354;2022-09-01T09:34:42;16.10;;;11.50;;
7833;SDS011;3962;42.696;23.354;2022-09-01T09:37:16;18.43;;;10.90;;
7833;SDS011;3962;42.696;23.354;2022-09-01T09:42:33;18.23;;;10.60;;
7833;SDS011;3962;42.696;23.354;2022-09-01T09:45:03;11.77;;;9.57;;
7833;SDS011;3962;42.696;23.354;2022-09-01T09:47:34;14.80;;;9.93;;
7833;SDS011;3962;42.696;23.354;2022-09-01T09:50:10;13.17;;;9.90;;
7833;SDS011;3962;42.696;23.354;2022-09-01T09:52:41;12.40;;;8.50;;
7833;SDS011;3962;42.696;23.354;2022-09-01T09:55:18;11.73;;;9.70;;
7833;SDS011;3962;42.696;23.354;2022-09-01T09:57:53;15.33;;;10.00;;
7833;SDS011;3962;42.696;23.354;2022-09-01T10:00:24;15.80;;;9.40;;
7833;SDS011;3962;42.696;23.354;2022-09-01T10:02:54;11.63;;;8.73;;
7833;SDS011;3962;42.696;23.354;2022-09-01T10:05:24;12.53;;;8.70;;
7833;SDS011;3962;42.696;23.354;2022-09-01T10:07:54;12.50;;;7.60;;
7833;SDS011;3962;42.696;23.354;2022-09-01T10:10:27;12.30;;;8.80;;
7833;SDS011;3962;42.696;23.354;2022-09-01T10:12:58;11.70;;;8.33;;
7833;SDS011;3962;42.696;23.354;2022-09-01T10:15:28;12.33;;;9.00;;
7833;SDS011;3962;42.696;23.354;2022-09-01T10:17:58;12.00;;;8.20;;
7833;SDS011;3962;42.696;23.354;2022-09-01T10:20:30;12.93;;;7.90;;
7833;SDS011;3962;42.696;23.354;2022-09-01T10:22:58;12.37;;;7.73;;
7833;SDS011;3962;42.696;23.354;2022-09-01T10:25:27;10.10;;;8.00;;
7833;SDS011;3962;42.696;23.354;2022-09-01T10:28:09;11.10;;;8.00;;
7833;SDS011;3962;42.696;23.354;2022-09-01T10:30:40;14.47;;;8.30;;
7833;SDS011;3962;42.696;23.354;2022-09-01T10:33:10;13.37;;;8.33;;
7833;SDS011;3962;42.696;23.354;2022-09-01T10:35:41;11.70;;;8.27;;
7833;SDS011;3962;42.696;23.354;2022-09-01T10:38:14;12.40;;;8.00;;
7833;SDS011;3962;42.696;23.354;2022-09-01T10:40:43;14.60;;;9.03;;
7833;SDS011;3962;42.696;23.354;2022-09-01T10:43:24;15.97;;;8.57;;
7833;SDS011;3962;42.696;23.354;2022-09-01T10:45:55;13.63;;;8.30;;
7833;SDS011;3962;42.696;23.354;2022-09-01T10:48:23;10.93;;;8.63;;
7833;SDS011;3962;42.696;23.354;2022-09-01T10:50:53;13.70;;;7.97;;
7833;SDS011;3962;42.696;23.354;2022-09-01T10:53:59;13.43;;;8.40;;
7833;SDS011;3962;42.696;23.354;2022-09-01T10:56:35;11.10;;;8.47;;
7833;SDS011;3962;42.696;23.354;2022-09-01T10:59:06;13.10;;;8.07;;
7833;SDS011;3962;42.696;23.354;2022-09-01T11:07:40;10.53;;;7.90;;
7833;SDS011;3962;42.696;23.354;2022-09-01T11:10:21;11.17;;;7.93;;
7833;SDS011;3962;42.696;23.354;2022-09-01T11:13:05;10.93;;;7.37;;
7833;SDS011;3962;42.696;23.354;2022-09-01T11:15:42;12.27;;;8.37;;
7833;SDS011;3962;42.696;23.354;2022-09-01T11:18:10;9.90;;;8.40;;
7833;SDS011;3962;42.696;23.354;2022-09-01T11:20:41;10.57;;;8.23;;
7833;SDS011;3962;42.696;23.354;2022-09-01T11:23:10;7.97;;;6.63;;
7833;SDS011;3962;42.696;23.354;2022-09-01T11:25:46;10.70;;;7.10;;
7833;SDS011;3962;42.696;23.354;2022-09-01T11:34:01;11.00;;;7.93;;
7833;SDS011;3962;42.696;23.354;2022-09-01T11:36:35;10.83;;;7.70;;
7833;SDS011;3962;42.696;23.354;2022-09-01T11:39:16;13.50;;;7.10;;
7833;SDS011;3962;42.696;23.354;2022-09-01T11:41:55;11.53;;;6.77;;
7833;SDS011;3962;42.696;23.354;2022-09-01T11:44:27;9.67;;;6.37;;
7833;SDS011;3962;42.696;23.354;2022-09-01T11:47:01;6.93;;;5.83;;
7833;SDS011;3962;42.696;23.354;2022-09-01T11:49:31;7.13;;;6.20;;
7833;SDS011;3962;42.696;23.354;2022-09-01T11:52:00;10.43;;;6.53;;
7833;SDS011;3962;42.696;23.354;2022-09-01T11:54:29;10.87;;;6.07;;
7833;SDS011;3962;42.696;23.354;2022-09-01T11:57:15;7.90;;;6.43;;
7833;SDS011;3962;42.696;23.354;2022-09-01T11:59:53;10.60;;;6.90;;
7833;SDS011;3962;42.696;23.354;2022-09-01T12:02:23;6.70;;;6.00;;
7833;SDS011;3962;42.696;23.354;2022-09-01T12:04:52;10.13;;;6.83;;
7833;SDS011;3962;42.696;23.354;2022-09-01T12:07:34;9.03;;;7.03;;
7833;SDS011;3962;42.696;23.354;2022-09-01T12:10:12;8.40;;;6.60;;
7833;SDS011;3962;42.696;23.354;2022-09-01T12:12:41;9.57;;;7.77;;
7833;SDS011;3962;42.696;23.354;2022-09-01T12:15:09;13.73;;;9.63;;
7833;SDS011;3962;42.696;23.354;2022-09-01T12:17:44;11.27;;;8.27;;
7833;SDS011;3962;42.696;23.354;2022-09-01T12:20:18;13.97;;;8.53;;
7833;SDS011;3962;42.696;23.354;2022-09-01T12:22:50;11.10;;;8.27;;
7833;SDS011;3962;42.696;23.354;2022-09-01T12:25:18;14.93;;;7.90;;
7833;SDS011;3962;42.696;23.354;2022-09-01T12:27:48;13.07;;;8.20;;
7833;SDS011;3962;42.696;23.354;2022-09-01T12:30:15;12.97;;;8.50;;
7833;SDS011;3962;42.696;23.354;2022-09-01T12:32:52;10.93;;;8.47;;
7833;SDS011;3962;42.696;23.354;2022-09-01T12:35:22;13.60;;;8.63;;
7833;SDS011;3962;42.696;23.354;2022-09-01T12:37:51;16.10;;;9.17;;
7833;SDS011;3962;42.696;23.354;2022-09-01T12:40:38;13.43;;;8.90;;
7833;SDS011;3962;42.696;23.354;2022-09-01T12:43:04;15.17;;;9.37;;
7833;SDS011;3962;42.696;23.354;2022-09-01T12:45:38;12.57;;;8.73;;
7833;SDS011;3962;42.696;23.354;2022-09-01T12:48:24;13.40;;;8.03;;
7833;SDS011;3962;42.696;23.354;2022-09-01T12:50:52;10.70;;;8.67;;
7833;SDS011;3962;42.696;23.354;2022-09-01T12:53:24;12.73;;;8.60;;
7833;SDS011;3962;42.696;23.354;2022-09-01T12:55:58;13.90;;;8.80;;
7833;SDS011;3962;42.696;23.354;2022-09-01T12:59:02;13.57;;;8.50;;
7833;SDS011;3962;42.696;23.354;2022-09-01T13:01:32;13.70;;;8.67;;
7833;SDS011;3962;42.696;23.354;2022-09-01T13:04:08;13.63;;;8.80;;
7833;SDS011;3962;42.696;23.354;2022-09-01T13:06:36;13.37;;;8.27;;
7833;SDS011;3962;42.696;23.354;2022-09-01T13:09:03;14.00;;;8.50;;
7833;SDS011;3962;42.696;23.354;2022-09-01T13:11:30;11.23;;;8.23;;
7833;SDS011;3962;42.696;23.354;2022-09-01T13:13:57;11.13;;;8.27;;
7833;SDS011;3962;42.696;23.354;2022-09-01T13:16:25;11.10;;;9.00;;
7833;SDS011;3962;42.696;23.354;2022-09-01T13:18:51;10.73;;;7.70;;
7833;SDS011;3962;42.696;23.354;2022-09-01T13:21:20;9.57;;;8.03;;
7833;SDS011;3962;42.696;23.354;2022-09-01T13:23:47;13.67;;;8.03;;
7833;SDS011;3962;42.696;23.354;2022-09-01T13:26:14;12.47;;;7.40;;
7833;SDS011;3962;42.696;23.354;2022-09-01T13:28:41;11.00;;;7.87;;
7833;SDS011;3962;42.696;23.354;2022-09-01T13:31:09;11.70;;;7.67;;
7833;SDS011;3962;42.696;23.354;2022-09-01T13:33:36;9.97;;;7.57;;
7833;SDS011;3962;42.696;23.354;2022-09-01T13:36:03;12.00;;;7.13;;
7833;SDS011;3962;42.696;23.354;2022-09-01T13:38:32;14.57;;;7.73;;
7833;SDS011;3962;42.696;23.354;2022-09-01T13:40:59;12.67;;;8.07;;
7833;SDS011;3962;42.696;23.354;2022-09-01T13:43:27;11.53;;;7.63;;
7833;SDS011;3962;42.696;23.354;2022-09-01T13:45:55;10.67;;;7.67;;
7833;SDS011;3962;42.696;23.354;2022-09-01T13:48:22;11.30;;;7.80;;
7833;SDS011;3962;42.696;23.354;2022-09-01T13:50:50;10.53;;;8.03;;
7833;SDS011;3962;42.696;23.354;2022-09-01T13:53:18;12.97;;;7.57;;
7833;SDS011;3962;42.696;23.354;2022-09-01T13:55:46;11.40;;;7.27;;
7833;SDS011;3962;42.696;23.354;2022-09-01T13:58:14;12.37;;;7.57;;
7833;SDS011;3962;42.696;23.354;2022-09-01T14:00:42;15.23;;;7.90;;
7833;SDS011;3962;42.696;23.354;2022-09-01T14:03:11;11.13;;;7.53;;
7833;SDS011;3962;42.696;23.354;2022-09-01T14:05:42;12.63;;;7.97;;
7833;SDS011;3962;42.696;23.354;2022-09-01T14:08:11;14.83;;;8.93;;
7833;SDS011;3962;42.696;23.354;2022-09-01T14:10:41;16.03;;;8.63;;
7833;SDS011;3962;42.696;23.354;2022-09-01T14:13:12;10.33;;;8.40;;
7833;SDS011;3962;42.696;23.354;2022-09-01T14:15:39;13.10;;;8.67;;
7833;SDS011;3962;42.696;23.354;2022-09-01T14:18:07;13.47;;;9.20;;
7833;SDS011;3962;42.696;23.354;2022-09-01T14:20:35;11.63;;;8.10;;
7833;SDS011;3962;42.696;23.354;2022-09-01T14:23:05;12.40;;;8.60;;
7833;SDS011;3962;42.696;23.354;2022-09-01T14:25:35;11.80;;;7.90;;
7833;SDS011;3962;42.696;23.354;2022-09-01T14:28:03;14.80;;;8.63;;
7833;SDS011;3962;42.696;23.354;2022-09-01T14:30:31;14.73;;;8.17;;
7833;SDS011;3962;42.696;23.354;2022-09-01T14:32:59;13.13;;;9.10;;
7833;SDS011;3962;42.696;23.354;2022-09-01T14:35:27;12.80;;;8.90;;
7833;SDS011;3962;42.696;23.354;2022-09-01T14:37:57;13.20;;;8.63;;
7833;SDS011;3962;42.696;23.354;2022-09-01T14:40:24;11.17;;;8.83;;
7833;SDS011;3962;42.696;23.354;2022-09-01T14:42:53;13.43;;;9.60;;
7833;SDS011;3962;42.696;23.354;2022-09-01T14:45:20;12.57;;;9.73;;
7833;SDS011;3962;42.696;23.354;2022-09-01T14:47:51;10.80;;;8.63;;
7833;SDS011;3962;42.696;23.354;2022-09-01T14:50:20;14.23;;;9.17;;
7833;SDS011;3962;42.696;23.354;2022-09-01T14:52:48;13.47;;;8.90;;
7833;SDS011;3962;42.696;23.354;2022-09-01T14:55:16;13.10;;;9.10;;
7833;SDS011;3962;42.696;23.354;2022-09-01T14:57:44;13.43;;;9.07;;
7833;SDS011;3962;42.696;23.354;2022-09-01T15:00:11;12.27;;;8.80;;
7833;SDS011;3962;42.696;23.354;2022-09-01T15:02:39;14.10;;;9.83;;
7833;SDS011;3962;42.696;23.354;2022-09-01T15:05:09;15.30;;;9.53;;
7833;SDS011;3962;42.696;23.354;2022-09-01T15:07:37;16.10;;;9.40;;
7833;SDS011;3962;42.696;23.354;2022-09-01T15:10:06;15.17;;;10.43;;
7833;SDS011;3962;42.696;23.354;2022-09-01T15:12:36;16.97;;;10.33;;